Flight Track Log - Related Links

Times and Time Zones

All times are in EDT time to prevent confusion due to time zone crossing. See the ACA831 flight status page for this flight to view local times or setup timezone preferences in your user account.

Time Position Orientation Groundspeed Altitude Reporting Facility
EDT Latitude Longitude Course Direction KTS MPH feet Rate Location/Type
Tue 04:26:05 PM 45.4333 -73.7500 254° West 170 196 2,300  Level Montreal Center
Tue 04:27:05 PM 45.4000 -73.8167 235° Southwest 230 265 4,900 3,200 Climbing Montreal Center
Tue 04:28:05 PM 45.4000 -73.9167 270° West 260 299 8,700 3,400 Climbing Montreal Center
Tue 04:29:00 PM 45.4102 -74.4426 250° West  Level FlightAware Approximate
Tue 04:29:05 PM 45.4000 -74.0333 270° West 290 334 11,700  Level Montreal Center
Tue 04:30:00 PM 45.3771 -74.6125 235° Southwest  Level FlightAware Approximate
Tue 04:30:38 PM 45.4000 -74.2167 270° West 350 403 16,900  Level Toronto Center
Tue 04:31:00 PM 45.3499 -74.7838 254° West  Level FlightAware Approximate
Tue 04:31:38 PM 45.4167 -74.3500 280° West 360 414 20,300  Level Toronto Center
Tue 04:32:38 PM 45.3833 -74.5000 252° West 370 426 23,100 2,450 Climbing Toronto Center
Tue 04:33:38 PM 45.3500 -74.6667 254° West 390 449 25,200 2,250 Climbing Toronto Center
Tue 04:34:38 PM 45.3333 -74.8167 261° West 410 472 27,600 2,300 Climbing Toronto Center
Tue 04:35:38 PM 45.3000 -74.9667 253° West 410 472 29,800 2,500 Climbing Toronto Center
Tue 04:36:38 PM 45.2833 -75.1333 262° West 410 472 32,600 2,100 Climbing Toronto Center
Tue 04:37:38 PM 45.2500 -75.3000 254° West 400 460 34,000 700 Climbing Toronto Center
Tue 04:38:38 PM 45.2167 -75.4333 251° West 400 460 34,000  Level Toronto Center
Tue 04:39:38 PM 45.2000 -75.5833 261° West 400 460 34,000  Level Toronto Center
Tue 04:40:38 PM 45.1667 -75.7333 253° West 400 460 34,000  Level Toronto Center
Tue 04:41:38 PM 45.1500 -75.8667 260° West 390 449 34,000  Level Toronto Center
Tue 04:42:38 PM 45.1167 -76.0333 254° West 400 460 34,000  Level Toronto Center
Tue 04:43:38 PM 45.1000 -76.1833 261° West 400 460 34,000  Level Toronto Center
Tue 04:44:38 PM 45.0333 -76.3333 238° Southwest 400 460 34,000  Level Toronto Center
Tue 04:45:38 PM 44.9833 -76.4500 239° Southwest 400 460 34,000  Level Toronto Center
Tue 04:46:38 PM 44.9167 -76.6000 238° Southwest 400 460 34,000  Level Toronto Center
Tue 04:47:38 PM 44.8833 -76.7333 251° West 400 460 34,000  Level Toronto Center
Tue 04:48:38 PM 44.8500 -76.8833 253° West 390 449 34,000  Level Toronto Center
Tue 04:49:38 PM 44.8167 -77.0167 251° West 390 449 34,000  Level Toronto Center
Tue 04:50:38 PM 44.7833 -77.1833 254° West 400 460 34,000  Level Toronto Center
Tue 04:51:38 PM 44.7333 -77.3333 245° Southwest 400 460 34,000 -300 Level Toronto Center
Tue 04:52:38 PM 44.7167 -77.4667 260° West 390 449 33,400 -1,100 Descending Toronto Center
Tue 04:53:38 PM 44.6833 -77.6167 253° West 380 437 31,800 -1,750 Descending Toronto Center
Tue 04:54:38 PM 44.6333 -77.7333 239° Southwest 370 426 29,900 -1,950 Descending Toronto Center
Tue 04:55:38 PM 44.5833 -77.8833 245° Southwest 360 414 27,900 -1,950 Descending Toronto Center
Tue 04:56:38 PM 44.5333 -77.9667 230° Southwest 350 403 26,000 -1,900 Descending Toronto Center
Tue 04:57:38 PM 44.4833 -78.0833 239° Southwest 350 403 24,100 -1,950 Descending Toronto Center
Tue 04:58:38 PM 44.4333 -78.2000 239° Southwest 340 391 22,100 -1,900 Descending Toronto Center
Tue 04:59:38 PM 44.4000 -78.3333 251° West 340 391 20,300 -1,900 Descending Toronto Center
Tue 05:00:38 PM 44.3500 -78.4667 242° Southwest 340 391 18,300 -1,800 Descending Toronto Center
Tue 05:01:38 PM 44.3167 -78.5667 245° Southwest 340 391 16,700 -1,550 Descending Toronto Center
Tue 05:02:38 PM 44.2500 -78.6500 222° Southwest 340 391 15,200 -1,600 Descending Toronto Center
Tue 05:03:38 PM 44.1667 -78.7333 216° Southwest 330 380 13,500 -1,700 Descending Toronto Center
Tue 05:04:38 PM 44.1000 -78.8000 216° Southwest 320 368 11,800 -1,700 Descending Toronto Center
Tue 05:05:38 PM 44.0333 -78.8667 216° Southwest 320 368 10,100 -1,200 Descending Toronto Center
Tue 05:06:38 PM 43.9667 -78.9333 216° Southwest 290 334 9,400 -1,350 Descending Toronto Center
Tue 05:07:38 PM 43.9000 -79.0000 216° Southwest 260 299 7,400 -1,133 Descending Toronto Center
Tue 05:09:00 PM 43.8637 -79.1588 245° Southwest  Level FlightAware Approximate
Tue 05:09:38 PM 43.8667 -79.1500 245° Southwest 220 253 6,000  Level Toronto Center
Tue 05:10:38 PM 43.8833 -79.2167 289° West 200 230 5,000 -1,000 Descending Toronto Center
Tue 05:11:38 PM 43.8667 -79.2833 251° West 200 230 4,000 -500 Descending Toronto Center
Tue 05:12:38 PM 43.8333 -79.3500 235° Southwest 200 230 4,000  Level Toronto Center
Tue 05:13:38 PM 43.7833 -79.4000 216° Southwest 190 219 4,000 -450 Level Toronto Center
Tue 05:14:38 PM 43.7500 -79.4500 227° Southwest 170 196 3,100 -900 Descending Toronto Center

Login

Don't have an account? Register now (free) for customized features, flight alerts, and more!